sensor_id;sensor_type;location;lat;lon;timestamp;temperature;humidity
12013;DHT22;6065;48.138;16.402;2023-07-29T00:02:01;23.70;95.10
12013;DHT22;6065;48.138;16.402;2023-07-29T00:04:28;23.60;95.20
12013;DHT22;6065;48.138;16.402;2023-07-29T00:06:54;23.60;95.10
12013;DHT22;6065;48.138;16.402;2023-07-29T00:09:21;23.60;95.10
12013;DHT22;6065;48.138;16.402;2023-07-29T00:11:48;23.60;95.10
12013;DHT22;6065;48.138;16.402;2023-07-29T00:14:16;23.60;95.00
12013;DHT22;6065;48.138;16.402;2023-07-29T00:16:43;23.60;95.00
12013;DHT22;6065;48.138;16.402;2023-07-29T00:19:09;23.60;95.00
12013;DHT22;6065;48.138;16.402;2023-07-29T00:21:36;23.60;95.00
12013;DHT22;6065;48.138;16.402;2023-07-29T00:24:03;23.60;95.10
12013;DHT22;6065;48.138;16.402;2023-07-29T00:26:30;23.60;95.10
12013;DHT22;6065;48.138;16.402;2023-07-29T00:28:57;23.60;95.10
12013;DHT22;6065;48.138;16.402;2023-07-29T00:31:25;23.60;95.20
12013;DHT22;6065;48.138;16.402;2023-07-29T00:33:52;23.50;95.20
12013;DHT22;6065;48.138;16.402;2023-07-29T00:36:19;23.50;95.30
12013;DHT22;6065;48.138;16.402;2023-07-29T00:38:46;23.50;95.30
12013;DHT22;6065;48.138;16.402;2023-07-29T00:41:12;23.50;95.40
12013;DHT22;6065;48.138;16.402;2023-07-29T00:43:40;23.50;95.40
12013;DHT22;6065;48.138;16.402;2023-07-29T00:46:07;23.50;95.40
12013;DHT22;6065;48.138;16.402;2023-07-29T00:48:36;23.50;95.50
12013;DHT22;6065;48.138;16.402;2023-07-29T00:51:03;23.50;95.50
12013;DHT22;6065;48.138;16.402;2023-07-29T00:53:30;23.50;95.60
12013;DHT22;6065;48.138;16.402;2023-07-29T00:55:56;23.50;95.50
12013;DHT22;6065;48.138;16.402;2023-07-29T00:58:23;23.40;95.50
12013;DHT22;6065;48.138;16.402;2023-07-29T01:00:50;23.40;95.50
12013;DHT22;6065;48.138;16.402;2023-07-29T01:03:17;23.40;95.60
12013;DHT22;6065;48.138;16.402;2023-07-29T01:05:48;23.40;95.60
12013;DHT22;6065;48.138;16.402;2023-07-29T01:08:18;23.40;95.60
12013;DHT22;6065;48.138;16.402;2023-07-29T01:10:50;23.40;95.50
12013;DHT22;6065;48.138;16.402;2023-07-29T01:13:19;23.40;95.60
12013;DHT22;6065;48.138;16.402;2023-07-29T01:15:48;23.40;95.70
12013;DHT22;6065;48.138;16.402;2023-07-29T01:18:18;23.40;95.70
12013;DHT22;6065;48.138;16.402;2023-07-29T01:20:47;23.40;95.70
12013;DHT22;6065;48.138;16.402;2023-07-29T01:23:14;23.40;95.80
12013;DHT22;6065;48.138;16.402;2023-07-29T01:25:43;23.30;95.90
12013;DHT22;6065;48.138;16.402;2023-07-29T01:28:10;23.30;95.90
12013;DHT22;6065;48.138;16.402;2023-07-29T01:30:38;23.30;95.90
12013;DHT22;6065;48.138;16.402;2023-07-29T01:33:09;23.30;96.00
12013;DHT22;6065;48.138;16.402;2023-07-29T01:35:39;23.30;96.00
12013;DHT22;6065;48.138;16.402;2023-07-29T01:38:09;23.30;96.00
12013;DHT22;6065;48.138;16.402;2023-07-29T01:40:39;23.20;96.30
12013;DHT22;6065;48.138;16.402;2023-07-29T01:43:07;23.20;96.00
12013;DHT22;6065;48.138;16.402;2023-07-29T01:45:34;23.30;96.00
12013;DHT22;6065;48.138;16.402;2023-07-29T01:48:03;23.20;96.00
12013;DHT22;6065;48.138;16.402;2023-07-29T01:50:30;23.20;96.10
12013;DHT22;6065;48.138;16.402;2023-07-29T01:52:57;23.20;96.10
12013;DHT22;6065;48.138;16.402;2023-07-29T01:55:24;23.20;96.00
12013;DHT22;6065;48.138;16.402;2023-07-29T01:57:51;23.20;95.90
12013;DHT22;6065;48.138;16.402;2023-07-29T02:00:19;23.20;96.00
12013;DHT22;6065;48.138;16.402;2023-07-29T02:02:46;23.20;96.00
12013;DHT22;6065;48.138;16.402;2023-07-29T02:05:12;23.20;95.90
12013;DHT22;6065;48.138;16.402;2023-07-29T02:07:39;23.30;95.90
12013;DHT22;6065;48.138;16.402;2023-07-29T02:10:06;23.30;96.00
12013;DHT22;6065;48.138;16.402;2023-07-29T02:12:34;23.30;96.00
12013;DHT22;6065;48.138;16.402;2023-07-29T02:15:00;23.30;96.00
12013;DHT22;6065;48.138;16.402;2023-07-29T02:17:29;23.30;96.00
12013;DHT22;6065;48.138;16.402;2023-07-29T02:19:55;23.30;96.00
12013;DHT22;6065;48.138;16.402;2023-07-29T02:22:22;23.20;96.00
12013;DHT22;6065;48.138;16.402;2023-07-29T02:24:49;23.20;96.00
12013;DHT22;6065;48.138;16.402;2023-07-29T02:27:16;23.20;96.00
12013;DHT22;6065;48.138;16.402;2023-07-29T02:29:42;23.20;95.90
12013;DHT22;6065;48.138;16.402;2023-07-29T02:32:09;23.10;95.60
12013;DHT22;6065;48.138;16.402;2023-07-29T02:34:37;23.10;95.50
12013;DHT22;6065;48.138;16.402;2023-07-29T02:37:04;23.10;95.30
12013;DHT22;6065;48.138;16.402;2023-07-29T02:39:31;23.20;95.20
12013;DHT22;6065;48.138;16.402;2023-07-29T02:41:57;23.20;95.20
12013;DHT22;6065;48.138;16.402;2023-07-29T02:44:24;23.20;94.60
12013;DHT22;6065;48.138;16.402;2023-07-29T02:46:51;23.20;94.50
12013;DHT22;6065;48.138;16.402;2023-07-29T02:49:20;23.20;94.50
12013;DHT22;6065;48.138;16.402;2023-07-29T02:51:48;23.10;94.20
12013;DHT22;6065;48.138;16.402;2023-07-29T02:54:14;23.10;94.20
12013;DHT22;6065;48.138;16.402;2023-07-29T02:56:41;23.10;94.00
12013;DHT22;6065;48.138;16.402;2023-07-29T02:59:08;23.10;93.80
12013;DHT22;6065;48.138;16.402;2023-07-29T03:01:34;23.10;93.90
12013;DHT22;6065;48.138;16.402;2023-07-29T03:04:01;23.10;93.80
12013;DHT22;6065;48.138;16.402;2023-07-29T03:06:28;23.10;93.70
12013;DHT22;6065;48.138;16.402;2023-07-29T03:08:56;23.10;93.70
12013;DHT22;6065;48.138;16.402;2023-07-29T03:11:22;23.10;93.50
12013;DHT22;6065;48.138;16.402;2023-07-29T03:13:49;23.00;93.50
12013;DHT22;6065;48.138;16.402;2023-07-29T03:16:16;23.00;93.60
12013;DHT22;6065;48.138;16.402;2023-07-29T03:18:43;23.00;93.40
12013;DHT22;6065;48.138;16.402;2023-07-29T03:21:10;23.00;93.30
12013;DHT22;6065;48.138;16.402;2023-07-29T03:23:37;23.00;93.30
12013;DHT22;6065;48.138;16.402;2023-07-29T03:26:05;23.10;93.30
12013;DHT22;6065;48.138;16.402;2023-07-29T03:28:35;23.10;93.20
12013;DHT22;6065;48.138;16.402;2023-07-29T03:31:02;23.10;93.20
12013;DHT22;6065;48.138;16.402;2023-07-29T03:33:29;23.10;93.10
12013;DHT22;6065;48.138;16.402;2023-07-29T03:35:56;23.00;93.10
12013;DHT22;6065;48.138;16.402;2023-07-29T03:38:22;23.00;93.10
12013;DHT22;6065;48.138;16.402;2023-07-29T03:40:50;23.00;93.10
12013;DHT22;6065;48.138;16.402;2023-07-29T03:43:18;23.00;93.20
12013;DHT22;6065;48.138;16.402;2023-07-29T03:45:45;23.00;93.30
12013;DHT22;6065;48.138;16.402;2023-07-29T03:48:11;23.00;93.20
12013;DHT22;6065;48.138;16.402;2023-07-29T03:50:38;23.00;93.20
12013;DHT22;6065;48.138;16.402;2023-07-29T03:53:05;23.00;93.20
12013;DHT22;6065;48.138;16.402;2023-07-29T03:55:31;23.00;93.30
12013;DHT22;6065;48.138;16.402;2023-07-29T03:57:58;23.00;93.40
12013;DHT22;6065;48.138;16.402;2023-07-29T04:00:27;22.90;93.40
12013;DHT22;6065;48.138;16.402;2023-07-29T04:02:54;23.00;93.50
12013;DHT22;6065;48.138;16.402;2023-07-29T04:05:20;22.90;93.50
12013;DHT22;6065;48.138;16.402;2023-07-29T04:07:47;22.90;93.60
12013;DHT22;6065;48.138;16.402;2023-07-29T04:10:14;22.90;93.60
12013;DHT22;6065;48.138;16.402;2023-07-29T04:12:40;22.90;93.70
12013;DHT22;6065;48.138;16.402;2023-07-29T04:15:07;22.90;93.70
12013;DHT22;6065;48.138;16.402;2023-07-29T04:17:35;22.90;93.70
12013;DHT22;6065;48.138;16.402;2023-07-29T04:20:03;22.90;93.60
12013;DHT22;6065;48.138;16.402;2023-07-29T04:22:29;22.90;93.70
12013;DHT22;6065;48.138;16.402;2023-07-29T04:24:56;22.90;93.60
12013;DHT22;6065;48.138;16.402;2023-07-29T04:27:23;22.90;93.60
12013;DHT22;6065;48.138;16.402;2023-07-29T04:29:50;22.90;93.50
12013;DHT22;6065;48.138;16.402;2023-07-29T04:32:16;23.00;93.40
12013;DHT22;6065;48.138;16.402;2023-07-29T04:34:45;23.00;93.20
12013;DHT22;6065;48.138;16.402;2023-07-29T04:37:11;22.90;93.30
12013;DHT22;6065;48.138;16.402;2023-07-29T04:39:38;22.90;93.50
12013;DHT22;6065;48.138;16.402;2023-07-29T04:42:05;22.90;93.60
12013;DHT22;6065;48.138;16.402;2023-07-29T04:44:31;22.90;93.60
12013;DHT22;6065;48.138;16.402;2023-07-29T04:46:58;22.90;93.60
12013;DHT22;6065;48.138;16.402;2023-07-29T04:49:25;22.90;93.60
12013;DHT22;6065;48.138;16.402;2023-07-29T04:51:53;22.90;93.70
12013;DHT22;6065;48.138;16.402;2023-07-29T04:54:19;22.90;93.50
12013;DHT22;6065;48.138;16.402;2023-07-29T04:56:47;22.90;93.60
12013;DHT22;6065;48.138;16.402;2023-07-29T04:59:13;22.90;93.70
12013;DHT22;6065;48.138;16.402;2023-07-29T05:01:40;22.90;93.80
12013;DHT22;6065;48.138;16.402;2023-07-29T05:04:08;22.90;93.80
12013;DHT22;6065;48.138;16.402;2023-07-29T05:06:35;22.90;93.80
12013;DHT22;6065;48.138;16.402;2023-07-29T05:09:13;22.90;93.70
12013;DHT22;6065;48.138;16.402;2023-07-29T05:11:41;22.90;93.80
12013;DHT22;6065;48.138;16.402;2023-07-29T05:14:08;22.90;94.00
12013;DHT22;6065;48.138;16.402;2023-07-29T05:16:35;22.80;94.10
12013;DHT22;6065;48.138;16.402;2023-07-29T05:19:02;22.80;94.30
12013;DHT22;6065;48.138;16.402;2023-07-29T05:21:29;22.70;94.40
12013;DHT22;6065;48.138;16.402;2023-07-29T05:23:56;22.80;94.30
12013;DHT22;6065;48.138;16.402;2023-07-29T05:26:24;22.80;94.40
12013;DHT22;6065;48.138;16.402;2023-07-29T05:28:50;22.80;94.40
12013;DHT22;6065;48.138;16.402;2023-07-29T05:31:17;22.80;94.40
12013;DHT22;6065;48.138;16.402;2023-07-29T05:33:44;22.80;94.60
12013;DHT22;6065;48.138;16.402;2023-07-29T05:36:10;22.80;94.60
12013;DHT22;6065;48.138;16.402;2023-07-29T05:38:37;22.80;94.70
12013;DHT22;6065;48.138;16.402;2023-07-29T05:41:04;22.80;94.60
12013;DHT22;6065;48.138;16.402;2023-07-29T05:43:32;22.80;94.70
12013;DHT22;6065;48.138;16.402;2023-07-29T05:45:59;22.80;94.70
12013;DHT22;6065;48.138;16.402;2023-07-29T05:48:25;22.90;94.60
12013;DHT22;6065;48.138;16.402;2023-07-29T05:50:52;22.90;94.70
12013;DHT22;6065;48.138;16.402;2023-07-29T05:53:19;22.90;94.50
12013;DHT22;6065;48.138;16.402;2023-07-29T05:55:45;22.90;94.40
12013;DHT22;6065;48.138;16.402;2023-07-29T05:58:12;23.00;94.60
12013;DHT22;6065;48.138;16.402;2023-07-29T06:00:40;23.00;94.60
12013;DHT22;6065;48.138;16.402;2023-07-29T06:03:07;23.00;94.60
12013;DHT22;6065;48.138;16.402;2023-07-29T06:05:34;23.00;94.60
12013;DHT22;6065;48.138;16.402;2023-07-29T06:08:00;23.10;94.40
12013;DHT22;6065;48.138;16.402;2023-07-29T06:10:27;23.10;94.50
12013;DHT22;6065;48.138;16.402;2023-07-29T06:12:54;23.10;94.50
12013;DHT22;6065;48.138;16.402;2023-07-29T06:15:21;23.10;94.50
12013;DHT22;6065;48.138;16.402;2023-07-29T06:17:49;23.20;94.50
12013;DHT22;6065;48.138;16.402;2023-07-29T06:20:16;23.20;94.50
12013;DHT22;6065;48.138;16.402;2023-07-29T06:22:43;23.20;94.50
12013;DHT22;6065;48.138;16.402;2023-07-29T06:25:09;23.20;94.40
12013;DHT22;6065;48.138;16.402;2023-07-29T06:27:36;23.30;94.30
12013;DHT22;6065;48.138;16.402;2023-07-29T06:30:03;23.30;94.40
12013;DHT22;6065;48.138;16.402;2023-07-29T06:32:30;23.30;94.30
12013;DHT22;6065;48.138;16.402;2023-07-29T06:34:58;23.30;94.10
12013;DHT22;6065;48.138;16.402;2023-07-29T06:37:24;23.30;94.10
12013;DHT22;6065;48.138;16.402;2023-07-29T06:39:51;23.30;94.10
12013;DHT22;6065;48.138;16.402;2023-07-29T06:42:18;23.30;94.20
12013;DHT22;6065;48.138;16.402;2023-07-29T06:44:44;23.30;94.20
12013;DHT22;6065;48.138;16.402;2023-07-29T06:47:12;23.30;94.20
12013;DHT22;6065;48.138;16.402;2023-07-29T06:49:39;23.30;94.20
12013;DHT22;6065;48.138;16.402;2023-07-29T06:52:08;23.30;94.20
12013;DHT22;6065;48.138;16.402;2023-07-29T06:54:34;23.40;94.30
12013;DHT22;6065;48.138;16.402;2023-07-29T06:57:01;23.40;94.30
12013;DHT22;6065;48.138;16.402;2023-07-29T06:59:28;23.40;94.20
12013;DHT22;6065;48.138;16.402;2023-07-29T07:01:55;23.40;94.30
12013;DHT22;6065;48.138;16.402;2023-07-29T07:04:21;23.50;94.40
12013;DHT22;6065;48.138;16.402;2023-07-29T07:06:48;23.50;94.40
12013;DHT22;6065;48.138;16.402;2023-07-29T07:09:16;23.50;94.30
12013;DHT22;6065;48.138;16.402;2023-07-29T07:11:43;23.50;94.20
12013;DHT22;6065;48.138;16.402;2023-07-29T07:14:09;23.50;94.30
12013;DHT22;6065;48.138;16.402;2023-07-29T07:16:36;23.60;94.40
12013;DHT22;6065;48.138;16.402;2023-07-29T07:19:04;23.60;94.30
12013;DHT22;6065;48.138;16.402;2023-07-29T07:21:31;23.70;94.20
12013;DHT22;6065;48.138;16.402;2023-07-29T07:23:58;23.70;94.20
12013;DHT22;6065;48.138;16.402;2023-07-29T07:26:26;23.80;94.30
12013;DHT22;6065;48.138;16.402;2023-07-29T07:28:53;23.80;94.30
12013;DHT22;6065;48.138;16.402;2023-07-29T07:31:20;23.80;94.30
12013;DHT22;6065;48.138;16.402;2023-07-29T07:33:46;23.90;94.30
12013;DHT22;6065;48.138;16.402;2023-07-29T07:36:13;23.90;94.30
12013;DHT22;6065;48.138;16.402;2023-07-29T07:38:41;23.90;94.20
12013;DHT22;6065;48.138;16.402;2023-07-29T07:41:07;24.00;94.20
12013;DHT22;6065;48.138;16.402;2023-07-29T07:43:35;24.00;94.10
12013;DHT22;6065;48.138;16.402;2023-07-29T07:46:02;24.10;94.10
12013;DHT22;6065;48.138;16.402;2023-07-29T07:48:29;24.10;94.10
12013;DHT22;6065;48.138;16.402;2023-07-29T07:50:58;24.20;94.10
12013;DHT22;6065;48.138;16.402;2023-07-29T07:53:25;24.20;94.00
12013;DHT22;6065;48.138;16.402;2023-07-29T07:55:52;24.20;94.10
12013;DHT22;6065;48.138;16.402;2023-07-29T07:58:18;24.20;93.90
12013;DHT22;6065;48.138;16.402;2023-07-29T08:00:46;24.20;93.80
12013;DHT22;6065;48.138;16.402;2023-07-29T08:03:13;24.20;93.80
12013;DHT22;6065;48.138;16.402;2023-07-29T08:05:40;24.30;93.80
12013;DHT22;6065;48.138;16.402;2023-07-29T08:08:06;24.30;93.80
12013;DHT22;6065;48.138;16.402;2023-07-29T08:10:33;24.30;93.70
12013;DHT22;6065;48.138;16.402;2023-07-29T08:13:00;24.40;93.70
12013;DHT22;6065;48.138;16.402;2023-07-29T08:15:26;24.50;93.70
12013;DHT22;6065;48.138;16.402;2023-07-29T08:17:54;24.60;93.70
12013;DHT22;6065;48.138;16.402;2023-07-29T08:20:21;24.60;93.60
12013;DHT22;6065;48.138;16.402;2023-07-29T08:22:48;24.60;93.20
12013;DHT22;6065;48.138;16.402;2023-07-29T08:25:15;24.60;93.10
12013;DHT22;6065;48.138;16.402;2023-07-29T08:27:42;24.80;93.30
12013;DHT22;6065;48.138;16.402;2023-07-29T08:30:09;24.80;93.20
12013;DHT22;6065;48.138;16.402;2023-07-29T08:32:35;25.00;93.00
12013;DHT22;6065;48.138;16.402;2023-07-29T08:35:04;25.00;92.90
12013;DHT22;6065;48.138;16.402;2023-07-29T08:37:30;25.10;92.60
12013;DHT22;6065;48.138;16.402;2023-07-29T08:39:57;25.20;92.40
12013;DHT22;6065;48.138;16.402;2023-07-29T08:42:25;25.30;92.20
12013;DHT22;6065;48.138;16.402;2023-07-29T08:44:53;25.30;92.10
12013;DHT22;6065;48.138;16.402;2023-07-29T08:47:20;25.50;92.10
12013;DHT22;6065;48.138;16.402;2023-07-29T08:49:47;25.50;92.10
12013;DHT22;6065;48.138;16.402;2023-07-29T08:52:15;25.60;92.00
12013;DHT22;6065;48.138;16.402;2023-07-29T08:54:42;25.70;91.90
12013;DHT22;6065;48.138;16.402;2023-07-29T08:57:09;25.80;91.90
12013;DHT22;6065;48.138;16.402;2023-07-29T08:59:36;25.80;91.80
12013;DHT22;6065;48.138;16.402;2023-07-29T09:02:03;25.90;91.90
12013;DHT22;6065;48.138;16.402;2023-07-29T09:04:30;25.90;92.10
12013;DHT22;6065;48.138;16.402;2023-07-29T09:06:57;26.00;92.00
12013;DHT22;6065;48.138;16.402;2023-07-29T09:09:26;26.00;91.90
12013;DHT22;6065;48.138;16.402;2023-07-29T09:11:53;26.10;91.70
12013;DHT22;6065;48.138;16.402;2023-07-29T09:14:19;26.20;91.60
12013;DHT22;6065;48.138;16.402;2023-07-29T09:16:46;26.30;91.70
12013;DHT22;6065;48.138;16.402;2023-07-29T09:19:13;26.30;91.50
12013;DHT22;6065;48.138;16.402;2023-07-29T09:21:40;26.40;91.30
12013;DHT22;6065;48.138;16.402;2023-07-29T09:24:07;26.40;91.20
12013;DHT22;6065;48.138;16.402;2023-07-29T09:26:35;26.40;91.30
12013;DHT22;6065;48.138;16.402;2023-07-29T09:29:02;26.50;91.10
12013;DHT22;6065;48.138;16.402;2023-07-29T09:31:28;26.50;90.80
12013;DHT22;6065;48.138;16.402;2023-07-29T09:33:55;26.50;90.90
12013;DHT22;6065;48.138;16.402;2023-07-29T09:36:22;26.60;91.00
12013;DHT22;6065;48.138;16.402;2023-07-29T09:38:51;26.70;90.80
12013;DHT22;6065;48.138;16.402;2023-07-29T09:41:18;26.70;90.20
12013;DHT22;6065;48.138;16.402;2023-07-29T09:43:46;26.80;90.50
12013;DHT22;6065;48.138;16.402;2023-07-29T09:46:13;26.90;90.50
12013;DHT22;6065;48.138;16.402;2023-07-29T09:48:40;27.00;90.40
12013;DHT22;6065;48.138;16.402;2023-07-29T09:51:11;27.10;90.20
12013;DHT22;6065;48.138;16.402;2023-07-29T09:53:41;27.10;90.00
12013;DHT22;6065;48.138;16.402;2023-07-29T09:56:08;27.20;89.70
12013;DHT22;6065;48.138;16.402;2023-07-29T09:58:35;27.30;89.70
12013;DHT22;6065;48.138;16.402;2023-07-29T10:01:04;27.30;89.30
12013;DHT22;6065;48.138;16.402;2023-07-29T10:03:31;27.30;89.30
12013;DHT22;6065;48.138;16.402;2023-07-29T10:05:59;27.30;89.10
12013;DHT22;6065;48.138;16.402;2023-07-29T10:08:26;27.40;88.70
12013;DHT22;6065;48.138;16.402;2023-07-29T10:10:53;27.60;88.90
12013;DHT22;6065;48.138;16.402;2023-07-29T10:13:20;27.70;89.40
12013;DHT22;6065;48.138;16.402;2023-07-29T10:15:48;27.80;88.60
12013;DHT22;6065;48.138;16.402;2023-07-29T10:18:17;27.80;88.90
12013;DHT22;6065;48.138;16.402;2023-07-29T10:20:45;27.80;88.10
12013;DHT22;6065;48.138;16.402;2023-07-29T10:23:12;27.80;87.50
12013;DHT22;6065;48.138;16.402;2023-07-29T10:25:42;27.80;87.50
12013;DHT22;6065;48.138;16.402;2023-07-29T10:28:10;27.80;87.20
12013;DHT22;6065;48.138;16.402;2023-07-29T10:30:38;27.80;87.70
12013;DHT22;6065;48.138;16.402;2023-07-29T10:33:05;27.80;87.60
12013;DHT22;6065;48.138;16.402;2023-07-29T10:35:34;27.90;87.60
12013;DHT22;6065;48.138;16.402;2023-07-29T10:38:01;28.00;87.50
12013;DHT22;6065;48.138;16.402;2023-07-29T10:40:43;27.90;87.10
12013;DHT22;6065;48.138;16.402;2023-07-29T10:43:10;27.90;89.10
12013;DHT22;6065;48.138;16.402;2023-07-29T10:45:37;27.90;88.80
12013;DHT22;6065;48.138;16.402;2023-07-29T10:48:09;28.00;88.90
12013;DHT22;6065;48.138;16.402;2023-07-29T10:50:38;28.10;88.70
12013;DHT22;6065;48.138;16.402;2023-07-29T10:53:05;28.10;87.90
12013;DHT22;6065;48.138;16.402;2023-07-29T10:55:32;28.00;88.50
12013;DHT22;6065;48.138;16.402;2023-07-29T10:58:06;28.10;88.60
12013;DHT22;6065;48.138;16.402;2023-07-29T11:00:34;28.20;87.10
12013;DHT22;6065;48.138;16.402;2023-07-29T11:03:01;28.30;87.80
12013;DHT22;6065;48.138;16.402;2023-07-29T11:05:42;28.40;87.90
12013;DHT22;6065;48.138;16.402;2023-07-29T11:08:19;28.50;88.70
12013;DHT22;6065;48.138;16.402;2023-07-29T11:10:57;28.60;87.30
12013;DHT22;6065;48.138;16.402;2023-07-29T11:13:25;28.70;86.50
12013;DHT22;6065;48.138;16.402;2023-07-29T11:15:52;28.60;86.70
12013;DHT22;6065;48.138;16.402;2023-07-29T11:18:20;28.70;87.30
12013;DHT22;6065;48.138;16.402;2023-07-29T11:20:48;28.80;86.40
12013;DHT22;6065;48.138;16.402;2023-07-29T11:23:15;28.90;86.30
12013;DHT22;6065;48.138;16.402;2023-07-29T11:25:42;29.00;85.70
12013;DHT22;6065;48.138;16.402;2023-07-29T11:28:09;29.10;85.40
12013;DHT22;6065;48.138;16.402;2023-07-29T11:30:38;29.10;84.40
12013;DHT22;6065;48.138;16.402;2023-07-29T11:33:05;29.10;84.50
12013;DHT22;6065;48.138;16.402;2023-07-29T11:35:32;29.20;86.70
12013;DHT22;6065;48.138;16.402;2023-07-29T11:38:00;29.30;84.70
12013;DHT22;6065;48.138;16.402;2023-07-29T11:40:26;29.30;83.90
12013;DHT22;6065;48.138;16.402;2023-07-29T11:42:53;29.30;84.50
12013;DHT22;6065;48.138;16.402;2023-07-29T11:45:22;29.40;85.20
12013;DHT22;6065;48.138;16.402;2023-07-29T11:47:49;29.50;83.50
12013;DHT22;6065;48.138;16.402;2023-07-29T11:50:15;29.50;83.00
12013;DHT22;6065;48.138;16.402;2023-07-29T11:52:44;29.30;83.20
12013;DHT22;6065;48.138;16.402;2023-07-29T11:55:13;29.30;84.70
12013;DHT22;6065;48.138;16.402;2023-07-29T11:57:40;29.30;83.10
12013;DHT22;6065;48.138;16.402;2023-07-29T12:00:08;29.30;82.90
12013;DHT22;6065;48.138;16.402;2023-07-29T12:02:36;29.30;84.20
12013;DHT22;6065;48.138;16.402;2023-07-29T12:05:03;29.20;83.20
12013;DHT22;6065;48.138;16.402;2023-07-29T12:07:30;29.20;83.40
12013;DHT22;6065;48.138;16.402;2023-07-29T12:09:58;29.10;83.70
12013;DHT22;6065;48.138;16.402;2023-07-29T12:12:26;29.10;85.20
12013;DHT22;6065;48.138;16.402;2023-07-29T12:14:54;29.30;84.40
12013;DHT22;6065;48.138;16.402;2023-07-29T12:17:20;29.50;83.60
12013;DHT22;6065;48.138;16.402;2023-07-29T12:19:47;29.70;83.00
12013;DHT22;6065;48.138;16.402;2023-07-29T12:22:17;29.80;82.00
12013;DHT22;6065;48.138;16.402;2023-07-29T12:24:44;29.80;80.50
12013;DHT22;6065;48.138;16.402;2023-07-29T12:27:11;29.80;82.10
12013;DHT22;6065;48.138;16.402;2023-07-29T12:29:43;29.80;81.80
12013;DHT22;6065;48.138;16.402;2023-07-29T12:32:11;29.70;82.40
12013;DHT22;6065;48.138;16.402;2023-07-29T12:34:39;29.50;82.40
12013;DHT22;6065;48.138;16.402;2023-07-29T12:37:06;29.50;82.30
12013;DHT22;6065;48.138;16.402;2023-07-29T12:39:34;29.40;82.50
12013;DHT22;6065;48.138;16.402;2023-07-29T12:42:01;29.40;82.30
12013;DHT22;6065;48.138;16.402;2023-07-29T12:44:30;29.50;79.80
12013;DHT22;6065;48.138;16.402;2023-07-29T12:46:58;29.40;79.80
12013;DHT22;6065;48.138;16.402;2023-07-29T12:49:25;29.50;81.20
12013;DHT22;6065;48.138;16.402;2023-07-29T12:51:51;29.50;80.60
12013;DHT22;6065;48.138;16.402;2023-07-29T12:54:18;29.50;80.10
12013;DHT22;6065;48.138;16.402;2023-07-29T12:56:45;29.50;80.60
12013;DHT22;6065;48.138;16.402;2023-07-29T12:59:11;29.60;81.60
12013;DHT22;6065;48.138;16.402;2023-07-29T13:01:38;29.70;81.50
12013;DHT22;6065;48.138;16.402;2023-07-29T13:04:06;29.80;81.30
12013;DHT22;6065;48.138;16.402;2023-07-29T13:06:33;30.00;81.20
12013;DHT22;6065;48.138;16.402;2023-07-29T13:08:59;30.10;76.90
12013;DHT22;6065;48.138;16.402;2023-07-29T13:11:26;30.20;77.50
12013;DHT22;6065;48.138;16.402;2023-07-29T13:13:53;30.30;76.70
12013;DHT22;6065;48.138;16.402;2023-07-29T13:16:19;30.40;76.00
12013;DHT22;6065;48.138;16.402;2023-07-29T13:18:46;30.40;75.30
12013;DHT22;6065;48.138;16.402;2023-07-29T13:21:14;30.30;75.00
12013;DHT22;6065;48.138;16.402;2023-07-29T13:23:41;30.30;75.20
12013;DHT22;6065;48.138;16.402;2023-07-29T13:26:07;30.30;76.10
12013;DHT22;6065;48.138;16.402;2023-07-29T13:28:34;30.30;76.70
12013;DHT22;6065;48.138;16.402;2023-07-29T13:31:01;30.30;76.50
12013;DHT22;6065;48.138;16.402;2023-07-29T13:33:28;30.20;77.30
12013;DHT22;6065;48.138;16.402;2023-07-29T13:35:59;30.20;76.90
12013;DHT22;6065;48.138;16.402;2023-07-29T13:38:27;30.10;77.10
12013;DHT22;6065;48.138;16.402;2023-07-29T13:40:53;30.00;77.60
12013;DHT22;6065;48.138;16.402;2023-07-29T13:43:20;30.00;77.60
12013;DHT22;6065;48.138;16.402;2023-07-29T13:45:47;29.90;78.00
12013;DHT22;6065;48.138;16.402;2023-07-29T13:48:15;29.90;78.80
12013;DHT22;6065;48.138;16.402;2023-07-29T13:50:42;29.90;79.00
12013;DHT22;6065;48.138;16.402;2023-07-29T13:53:09;29.80;78.70
12013;DHT22;6065;48.138;16.402;2023-07-29T13:55:37;29.80;78.80
12013;DHT22;6065;48.138;16.402;2023-07-29T13:58:04;29.80;79.10
12013;DHT22;6065;48.138;16.402;2023-07-29T14:00:30;29.70;78.80
12013;DHT22;6065;48.138;16.402;2023-07-29T14:02:57;29.70;79.20
12013;DHT22;6065;48.138;16.402;2023-07-29T14:05:24;29.60;79.20
12013;DHT22;6065;48.138;16.402;2023-07-29T14:07:50;29.60;79.70
12013;DHT22;6065;48.138;16.402;2023-07-29T14:10:17;29.60;79.80
12013;DHT22;6065;48.138;16.402;2023-07-29T14:12:45;29.50;80.00
12013;DHT22;6065;48.138;16.402;2023-07-29T14:15:12;29.50;79.80
12013;DHT22;6065;48.138;16.402;2023-07-29T14:17:38;29.50;79.80
12013;DHT22;6065;48.138;16.402;2023-07-29T14:20:06;29.40;80.20
12013;DHT22;6065;48.138;16.402;2023-07-29T14:22:33;29.40;80.60
12013;DHT22;6065;48.138;16.402;2023-07-29T14:24:59;29.30;81.30
12013;DHT22;6065;48.138;16.402;2023-07-29T14:27:26;29.30;81.40
12013;DHT22;6065;48.138;16.402;2023-07-29T14:29:54;29.30;81.40
12013;DHT22;6065;48.138;16.402;2023-07-29T14:32:21;29.30;81.40
12013;DHT22;6065;48.138;16.402;2023-07-29T14:34:48;29.30;81.40
12013;DHT22;6065;48.138;16.402;2023-07-29T14:37:15;29.30;80.60
12013;DHT22;6065;48.138;16.402;2023-07-29T14:39:42;29.30;80.20
12013;DHT22;6065;48.138;16.402;2023-07-29T14:42:08;29.30;80.20
12013;DHT22;6065;48.138;16.402;2023-07-29T14:44:35;29.30;80.10
12013;DHT22;6065;48.138;16.402;2023-07-29T14:47:03;29.30;80.00
12013;DHT22;6065;48.138;16.402;2023-07-29T14:49:30;29.30;79.80
12013;DHT22;6065;48.138;16.402;2023-07-29T14:51:57;29.30;79.70
12013;DHT22;6065;48.138;16.402;2023-07-29T14:54:23;29.30;79.80
12013;DHT22;6065;48.138;16.402;2023-07-29T14:56:50;29.30;79.10
12013;DHT22;6065;48.138;16.402;2023-07-29T14:59:17;29.30;79.30
12013;DHT22;6065;48.138;16.402;2023-07-29T15:01:43;29.30;79.00
12013;DHT22;6065;48.138;16.402;2023-07-29T15:04:11;29.20;79.20
12013;DHT22;6065;48.138;16.402;2023-07-29T15:06:38;29.20;79.40
12013;DHT22;6065;48.138;16.402;2023-07-29T15:09:05;29.20;79.50
12013;DHT22;6065;48.138;16.402;2023-07-29T15:11:31;29.30;79.90
12013;DHT22;6065;48.138;16.402;2023-07-29T15:13:59;29.20;80.30
12013;DHT22;6065;48.138;16.402;2023-07-29T15:16:25;29.20;80.50
12013;DHT22;6065;48.138;16.402;2023-07-29T15:18:52;29.10;83.80
12013;DHT22;6065;48.138;16.402;2023-07-29T15:21:20;29.10;81.40
12013;DHT22;6065;48.138;16.402;2023-07-29T15:23:47;29.10;80.50
12013;DHT22;6065;48.138;16.402;2023-07-29T15:26:14;29.10;80.10
12013;DHT22;6065;48.138;16.402;2023-07-29T15:28:40;29.10;80.80
12013;DHT22;6065;48.138;16.402;2023-07-29T15:31:07;29.10;81.00